Main page
METAR-TAF:

METAR-TAF

Airports :

Kirkwall Airport

Kirkwall, Scotland

latitude: 58-57N, longitude: 002-54W, elevation: 21 m

Current weather observation

The report was made 19 minutes ago, at 00:20 UTC
Wind 8 kt from the South
Temperature 8°C
Humidity 93%
Pressure 1028 hPa
Visibility 10 km or more

METAR: EGPA 240020Z AUTO 17008KT 9999 FEW010/// 08/07 Q1028

Time: 01:39 (00:39 UTC)

Forecast

The report was made 1 hour and 43 minutes ago, at 22:56 UTC
Forecast valid from 24 at 00 UTC to 24 at 09 UTC
Wind 9 kt from the South/Southeast
Visibility 10 km or more
Few clouds at a height of 1000 ft
Becoming
from 24 at 00 UTC to 24 at 04 UTC
Broken clouds at a height of 700 ft
Probability 40%
from 24 at 01 UTC to 24 at 06 UTC
Visibility: 8000 m
Broken clouds at a height of 400 ft
Becoming
from 24 at 06 UTC to 24 at 09 UTC
Scattered clouds at a height of 700 ft

TAF: EGPA 232256Z 2400/2409 16009KT 9999 FEW010 BECMG 2400/2404 BKN007 PROB40 2401/2406 8000 BKN004 BECMG 2406/2409 SCT007

Weather observations and forecasts of more than 4000 airports (METAR and TAF reports).

The available stations are represented by yellow and red dots on the map.

Hover mouse over dot to see the name of the station.

Then click to see weather observations and forecasts.

To change the map : click on the green buttons with a black cross to zoom in, on the green button with a dash to zoom out, or on the green arrows for adjacent maps.


METAR-TAF: